Time;durP1;ratioP1;P1;durP2;ratioP2;P2;SDS_P1;SDS_P2;PMS_P1;PMS_P2;Temp;Humidity;BMP_temperature;BMP_pressure;BME280_temperature;BME280_humidity;BME280_pressure;Samples;Min_cycle;Max_cycle;Signal;HPM_P1;HPM_P2
2023/08/04 00:00:14;;;;;;;14.13;5.00;;;;;;;16.91;100.00;100935.03;5225357;28;20037;-74
2023/08/04 00:02:45;;;;;;;14.47;4.67;;;;;;;16.69;100.00;100928.97;5234211;28;20112;-76
2023/08/04 00:05:17;;;;;;;11.93;5.20;;;;;;;16.73;100.00;100932.19;5247896;28;20120;-74
2023/08/04 00:07:48;;;;;;;13.20;5.27;;;;;;;16.73;100.00;100931.34;5233852;28;20744;-75
2023/08/04 00:10:19;;;;;;;11.63;5.33;;;;;;;16.71;100.00;100934.13;5217614;28;20536;-74
2023/08/04 00:12:51;;;;;;;15.03;5.17;;;;;;;16.71;100.00;100938.56;5212094;28;20033;-75
2023/08/04 00:15:22;;;;;;;14.73;6.00;;;;;;;16.74;100.00;100938.31;5212252;28;20044;-75
2023/08/04 00:17:54;;;;;;;15.70;5.67;;;;;;;16.71;100.00;100944.69;5230895;28;20044;-73
2023/08/04 00:20:25;;;;;;;12.40;5.73;;;;;;;16.79;100.00;100938.75;5233901;28;20061;-76
2023/08/04 00:22:57;;;;;;;13.90;5.87;;;;;;;16.61;100.00;100936.72;5234155;28;20040;-72
2023/08/04 00:25:31;;;;;;;11.77;5.07;;;;;;;16.67;100.00;100938.81;5214455;28;20026;-76
2023/08/04 00:28:03;;;;;;;13.70;5.00;;;;;;;16.61;100.00;100955.22;5214944;28;20043;-75
2023/08/04 00:30:34;;;;;;;15.83;5.73;;;;;;;16.47;100.00;100942.31;5229762;28;20360;-76
2023/08/04 00:33:05;;;;;;;16.17;7.50;;;;;;;16.43;100.00;100947.84;5206702;28;20032;-74
2023/08/04 00:35:37;;;;;;;13.80;5.70;;;;;;;16.45;100.00;100945.94;5233794;28;20832;-76
2023/08/04 00:38:08;;;;;;;16.13;6.20;;;;;;;16.11;100.00;100951.34;5233507;28;20029;-76
2023/08/04 00:40:39;;;;;;;18.80;6.03;;;;;;;16.38;100.00;100955.34;5232791;28;20026;-76
2023/08/04 00:43:12;;;;;;;19.07;7.10;;;;;;;16.20;100.00;100955.88;5231702;28;20388;-75
2023/08/04 00:45:43;;;;;;;14.53;5.43;;;;;;;16.28;100.00;100951.78;5232355;28;20156;-76
2023/08/04 00:48:15;;;;;;;11.80;4.90;;;;;;;16.18;100.00;100960.44;5232694;28;20112;-76
2023/08/04 00:50:47;;;;;;;14.50;6.17;;;;;;;16.31;100.00;100960.28;5233030;28;20052;-76
2023/08/04 00:53:18;;;;;;;9.83;5.20;;;;;;;16.41;100.00;100963.00;5232856;28;20653;-76
2023/08/04 00:55:50;;;;;;;12.87;5.87;;;;;;;16.35;100.00;100966.16;5232223;28;20340;-76
2023/08/04 00:58:22;;;;;;;15.53;5.97;;;;;;;16.34;100.00;100969.75;5215275;28;20709;-77
2023/08/04 01:00:53;;;;;;;14.03;6.70;;;;;;;16.26;100.00;100965.13;5214829;28;20025;-77
2023/08/04 01:03:25;;;;;;;14.50;5.47;;;;;;;16.23;100.00;100970.66;5215002;28;20032;-77
2023/08/04 01:06:07;;;;;;;11.53;5.10;;;;;;;16.27;100.00;100963.28;5232873;28;20029;-74
2023/08/04 01:08:42;;;;;;;15.60;5.80;;;;;;;16.15;100.00;100966.00;5235729;28;20041;-73
2023/08/04 01:11:19;;;;;;;13.40;5.90;;;;;;;16.26;100.00;100980.13;5231643;28;20033;-74
2023/08/04 01:13:51;;;;;;;13.47;7.23;;;;;;;15.88;100.00;100980.47;5257153;22;20430;-75
2023/08/04 01:16:23;;;;;;;12.43;5.63;;;;;;;15.70;100.00;100975.69;5261825;28;20033;-75
2023/08/04 01:19:00;;;;;;;14.77;5.93;;;;;;;16.13;100.00;100980.31;5253216;28;20025;-76
2023/08/04 01:21:41;;;;;;;15.83;7.03;;;;;;;16.15;100.00;100973.91;5254368;28;20037;-77
2023/08/04 01:24:13;;;;;;;13.50;6.07;;;;;;;16.04;100.00;100984.53;5252685;28;20033;-76
2023/08/04 01:26:47;;;;;;;12.93;5.93;;;;;;;15.80;100.00;100982.84;5253595;28;20080;-77
2023/08/04 01:29:20;;;;;;;13.63;5.72;;;;;;;15.87;100.00;100986.69;5253232;28;20521;-76
2023/08/04 01:31:52;;;;;;;17.00;6.53;;;;;;;15.59;100.00;100986.25;5253377;28;20041;-76
2023/08/04 01:34:24;;;;;;;10.70;5.47;;;;;;;15.69;100.00;100991.66;5252794;28;20025;-76
2023/08/04 01:36:55;;;;;;;11.13;6.50;;;;;;;15.71;100.00;100993.19;5253661;28;20527;-76
2023/08/04 01:39:27;;;;;;;15.00;6.23;;;;;;;15.82;100.00;100987.06;5252173;28;20031;-76
2023/08/04 01:41:58;;;;;;;18.50;8.00;;;;;;;15.88;100.00;101001.59;5252837;28;20028;-77
2023/08/04 01:44:29;;;;;;;13.03;5.73;;;;;;;16.00;100.00;101001.59;5252558;28;20026;-76
2023/08/04 01:47:01;;;;;;;15.23;7.17;;;;;;;15.95;100.00;101000.09;5252779;28;20025;-74
2023/08/04 01:49:32;;;;;;;13.83;6.33;;;;;;;15.92;100.00;101000.38;5253258;28;20783;-78
2023/08/04 01:52:04;;;;;;;16.07;5.90;;;;;;;15.96;100.00;101009.72;5253013;28;20025;-74
2023/08/04 01:54:35;;;;;;;11.23;6.10;;;;;;;15.79;100.00;101003.16;5234891;28;20053;-76
2023/08/04 01:57:06;;;;;;;12.50;6.73;;;;;;;15.79;100.00;100997.88;5252953;28;20032;-76
2023/08/04 01:59:38;;;;;;;14.50;7.00;;;;;;;15.88;100.00;101006.03;5235120;28;20025;-74
2023/08/04 02:02:09;;;;;;;19.60;7.93;;;;;;;15.90;100.00;100997.00;5216965;28;20452;-75
2023/08/04 02:04:40;;;;;;;13.13;6.43;;;;;;;15.93;100.00;100999.41;5233537;28;20441;-76
2023/08/04 02:07:12;;;;;;;12.13;6.53;;;;;;;15.91;100.00;100997.84;5252844;28;20025;-76
2023/08/04 02:09:43;;;;;;;21.27;7.83;;;;;;;15.83;100.00;101004.59;5252313;28;20029;-72
2023/08/04 02:12:14;;;;;;;17.23;5.93;;;;;;;15.92;100.00;101003.00;5252396;28;20052;-76
2023/08/04 02:14:46;;;;;;;13.57;5.93;;;;;;;16.07;100.00;101008.91;5252848;28;20052;-74
2023/08/04 02:17:18;;;;;;;13.53;6.53;;;;;;;16.01;100.00;101005.88;5252582;28;20041;-72
2023/08/04 02:19:49;;;;;;;14.90;6.33;;;;;;;15.86;100.00;101003.50;5252764;28;20123;-77
2023/08/04 02:22:20;;;;;;;14.73;6.40;;;;;;;15.95;100.00;100996.66;5252055;28;20104;-77
2023/08/04 02:24:51;;;;;;;15.93;6.63;;;;;;;16.05;100.00;101012.63;5251425;28;20060;-76
2023/08/04 02:27:23;;;;;;;13.10;5.70;;;;;;;15.80;100.00;101007.47;5252017;28;20102;-74
2023/08/04 02:29:54;;;;;;;12.70;5.97;;;;;;;15.81;100.00;101010.97;5237902;28;20033;-78
2023/08/04 02:32:25;;;;;;;14.63;7.30;;;;;;;15.62;100.00;101016.88;5233683;28;20021;-77
2023/08/04 02:34:57;;;;;;;12.90;6.50;;;;;;;15.83;100.00;101014.31;5252950;28;20048;-75
2023/08/04 02:37:28;;;;;;;14.57;6.17;;;;;;;15.73;100.00;101016.84;5235003;28;20028;-76
2023/08/04 02:39:59;;;;;;;15.00;5.83;;;;;;;15.81;100.00;101008.31;5251415;28;20033;-76
2023/08/04 02:42:31;;;;;;;13.27;6.20;;;;;;;15.77;100.00;101017.44;5250874;28;20091;-73
2023/08/04 02:45:03;;;;;;;15.97;6.50;;;;;;;15.84;100.00;101026.56;5252331;28;20025;-75
2023/08/04 02:47:36;;;;;;;15.00;5.77;;;;;;;15.54;100.00;101026.22;5252289;28;20515;-74
2023/08/04 02:50:08;;;;;;;14.02;5.93;;;;;;;15.72;100.00;101017.81;5251665;28;20086;-72
2023/08/04 02:52:39;;;;;;;11.33;6.07;;;;;;;15.66;100.00;101023.56;5233383;28;20472;-75
2023/08/04 02:55:12;;;;;;;13.20;6.10;;;;;;;15.64;100.00;101022.88;5237004;28;20021;-73
2023/08/04 02:57:43;;;;;;;12.10;6.67;;;;;;;15.38;100.00;101021.28;5256943;28;20021;-74
2023/08/04 03:00:14;;;;;;;14.37;6.87;;;;;;;15.55;100.00;101021.78;5256713;28;20032;-77
2023/08/04 03:02:45;;;;;;;13.27;6.97;;;;;;;15.59;100.00;101017.94;5256296;28;20074;-73
2023/08/04 03:05:17;;;;;;;10.83;5.67;;;;;;;15.39;100.00;101022.13;5254839;28;20063;-76
2023/08/04 03:07:48;;;;;;;20.57;6.57;;;;;;;15.48;100.00;101016.97;5255157;28;20029;-74
2023/08/04 03:10:19;;;;;;;10.23;5.87;;;;;;;15.41;100.00;101031.59;5254486;28;20398;-77
2023/08/04 03:12:51;;;;;;;10.37;6.53;;;;;;;15.62;100.00;101023.00;5229665;28;20029;-77
2023/08/04 03:15:22;;;;;;;13.10;5.93;;;;;;;15.33;100.00;101026.94;5255755;28;20045;-75
2023/08/04 03:17:53;;;;;;;14.93;6.07;;;;;;;15.23;100.00;101026.81;5237921;28;20029;-76
2023/08/04 03:20:25;;;;;;;12.03;6.53;;;;;;;15.24;100.00;101023.19;5236800;28;20033;-77
2023/08/04 03:22:59;;;;;;;12.47;5.93;;;;;;;15.44;100.00;101031.38;5235500;28;20049;-77
2023/08/04 03:25:31;;;;;;;12.13;6.20;;;;;;;15.46;100.00;101029.44;5233818;28;20028;-74
2023/08/04 03:28:02;;;;;;;11.13;5.90;;;;;;;15.23;100.00;101036.53;5234788;28;20087;-77
2023/08/04 03:30:33;;;;;;;9.07;6.00;;;;;;;15.42;100.00;101043.00;5235766;28;20029;-77
2023/08/04 03:33:05;;;;;;;13.73;7.90;;;;;;;15.47;100.00;101036.41;5222421;28;20047;-77
2023/08/04 03:35:36;;;;;;;12.40;6.00;;;;;;;15.26;100.00;101040.69;5256420;28;20078;-77
2023/08/04 03:38:07;;;;;;;13.03;5.93;;;;;;;15.38;100.00;101033.66;5255818;28;20036;-75
2023/08/04 03:40:39;;;;;;;13.90;6.83;;;;;;;15.54;100.00;101041.19;5254114;28;20079;-78
2023/08/04 03:43:10;;;;;;;17.27;8.00;;;;;;;15.59;100.00;101039.91;5255653;28;20104;-77
2023/08/04 03:45:41;;;;;;;13.47;6.40;;;;;;;15.53;100.00;101044.81;5256004;28;20095;-77
2023/08/04 03:48:12;;;;;;;12.27;6.87;;;;;;;15.45;100.00;101042.75;5255111;28;20107;-76
2023/08/04 03:50:44;;;;;;;11.30;6.33;;;;;;;15.28;100.00;101039.63;5255381;28;20052;-77
2023/08/04 03:53:15;;;;;;;10.57;6.47;;;;;;;15.33;100.00;101039.28;5254685;28;20717;-75
2023/08/04 03:55:46;;;;;;;14.70;6.57;;;;;;;15.38;100.00;101047.69;5254194;28;20039;-75
2023/08/04 03:58:18;;;;;;;9.37;7.10;;;;;;;15.34;100.00;101043.63;5255221;28;20036;-73
2023/08/04 04:00:49;;;;;;;15.40;6.13;;;;;;;15.46;100.00;101050.56;5238706;28;20108;-77
2023/08/04 04:03:20;;;;;;;15.07;6.43;;;;;;;15.22;100.00;101048.84;5254568;28;20107;-74
2023/08/04 04:05:52;;;;;;;11.87;6.67;;;;;;;15.22;100.00;101050.69;5235210;28;20476;-77
2023/08/04 04:08:23;;;;;;;14.77;7.10;;;;;;;15.39;100.00;101052.00;5254506;28;20052;-76
2023/08/04 04:10:55;;;;;;;11.73;6.50;;;;;;;15.38;100.00;101052.13;5236201;28;20025;-76
2023/08/04 04:13:26;;;;;;;14.50;6.57;;;;;;;15.21;100.00;101052.47;5237088;28;20044;-77
2023/08/04 04:15:57;;;;;;;14.40;7.33;;;;;;;15.19;100.00;101051.75;5254868;28;20037;-76
2023/08/04 04:18:29;;;;;;;13.13;6.40;;;;;;;15.18;100.00;101049.22;5253438;28;20125;-77
2023/08/04 04:21:00;;;;;;;13.27;6.60;;;;;;;15.07;100.00;101057.94;5254537;28;20040;-74
2023/08/04 04:23:31;;;;;;;10.07;6.10;;;;;;;15.26;100.00;101056.53;5233796;28;20060;-72
2023/08/04 04:26:04;;;;;;;12.50;6.90;;;;;;;15.10;100.00;101061.19;5253443;28;20076;-80
2023/08/04 04:28:36;;;;;;;15.47;7.10;;;;;;;15.10;100.00;101066.47;5254997;28;20107;-78
2023/08/04 04:31:07;;;;;;;14.97;6.77;;;;;;;15.05;100.00;101073.88;5241057;28;20032;-77
2023/08/04 04:33:38;;;;;;;15.23;6.97;;;;;;;15.11;100.00;101077.88;5255311;28;20029;-76
2023/08/04 04:36:10;;;;;;;14.50;8.20;;;;;;;15.00;100.00;101070.75;5254637;28;20032;-77
2023/08/04 04:38:42;;;;;;;16.10;6.80;;;;;;;15.13;100.00;101052.22;5253509;28;20029;-75
2023/08/04 04:41:13;;;;;;;10.23;6.73;;;;;;;15.03;100.00;101070.53;5259801;28;20615;-77
2023/08/04 04:43:44;;;;;;;14.13;6.90;;;;;;;14.87;100.00;101074.31;5259359;28;20029;-73
2023/08/04 04:46:16;;;;;;;12.60;6.10;;;;;;;15.08;100.00;101075.47;5253593;28;20090;-75
2023/08/04 04:48:47;;;;;;;13.60;6.43;;;;;;;15.12;100.00;101075.13;5234940;28;20175;-77
2023/08/04 04:51:18;;;;;;;19.93;8.83;;;;;;;15.46;100.00;101086.69;5240896;28;20097;-74
2023/08/04 04:53:50;;;;;;;13.23;7.10;;;;;;;15.34;100.00;101072.63;5261404;28;20120;-76
2023/08/04 04:56:21;;;;;;;13.83;6.63;;;;;;;15.14;100.00;101082.91;5254188;28;20116;-76
2023/08/04 04:58:52;;;;;;;13.57;8.60;;;;;;;15.04;100.00;101079.28;5254062;28;20029;-78
2023/08/04 05:01:24;;;;;;;12.23;6.57;;;;;;;14.88;100.00;101083.06;5257675;28;20036;-82
2023/08/04 05:03:55;;;;;;;13.43;7.13;;;;;;;15.14;100.00;101089.97;5253180;28;20025;-81
2023/08/04 05:06:26;;;;;;;13.50;7.33;;;;;;;15.11;100.00;101093.69;5236854;28;20051;-85
2023/08/04 05:08:58;;;;;;;13.83;5.93;;;;;;;15.17;100.00;101100.31;5252178;28;20039;-74
2023/08/04 05:11:29;;;;;;;16.67;8.60;;;;;;;15.19;100.00;101103.66;5253707;28;20041;-81
2023/08/04 05:14:00;;;;;;;15.63;7.80;;;;;;;15.08;100.00;101099.22;5235968;28;20127;-74
2023/08/04 05:16:32;;;;;;;13.87;7.27;;;;;;;15.20;100.00;101106.16;5254268;28;20111;-80
2023/08/04 05:19:03;;;;;;;15.37;7.10;;;;;;;15.36;100.00;101107.66;5253228;28;20024;-76
2023/08/04 05:21:34;;;;;;;13.70;7.77;;;;;;;15.35;100.00;101112.09;5236630;28;20025;-81
2023/08/04 05:24:05;;;;;;;17.40;7.57;;;;;;;15.27;100.00;101117.13;5252794;28;20109;-84
2023/08/04 05:26:37;;;;;;;13.37;7.50;;;;;;;15.36;100.00;101112.91;5236312;28;20123;-79
2023/08/04 05:29:08;;;;;;;13.37;7.10;;;;;;;15.46;100.00;101113.91;5253195;28;20095;-80
2023/08/04 05:31:39;;;;;;;19.47;9.23;;;;;;;15.47;100.00;101115.59;5236226;28;20144;-80
2023/08/04 05:34:11;;;;;;;13.73;7.27;;;;;;;15.55;100.00;101107.06;5253945;28;20032;-81
2023/08/04 05:36:42;;;;;;;12.57;7.73;;;;;;;15.65;100.00;101123.06;5254070;28;20748;-76
2023/08/04 05:39:13;;;;;;;16.47;8.23;;;;;;;15.69;100.00;101128.94;5253271;28;20455;-78
2023/08/04 05:41:45;;;;;;;13.53;8.47;;;;;;;15.65;100.00;101101.94;5253268;28;20032;-77
2023/08/04 05:44:16;;;;;;;10.90;7.00;;;;;;;15.87;100.00;101120.53;5253467;28;20036;-77
2023/08/04 05:46:48;;;;;;;14.33;8.10;;;;;;;15.87;100.00;101120.53;5236149;28;20033;-82
2023/08/04 05:49:19;;;;;;;14.37;7.60;;;;;;;15.97;100.00;101132.91;5253725;28;20100;-75
2023/08/04 05:51:51;;;;;;;14.60;8.07;;;;;;;16.02;100.00;101129.94;5253505;28;20033;-80
2023/08/04 05:54:22;;;;;;;13.53;8.03;;;;;;;16.07;100.00;101133.06;5252268;28;20068;-82
2023/08/04 05:56:53;;;;;;;16.47;8.50;;;;;;;16.14;100.00;101136.06;5253708;28;20060;-80
2023/08/04 05:59:25;;;;;;;18.60;8.23;;;;;;;16.20;100.00;101138.22;5235099;28;20107;-75
2023/08/04 06:01:56;;;;;;;14.20;7.27;;;;;;;16.22;100.00;101135.44;5253821;28;20037;-79
2023/08/04 06:04:27;;;;;;;12.87;8.57;;;;;;;16.32;100.00;101141.66;5253430;28;20104;-75
2023/08/04 06:06:58;;;;;;;12.33;7.67;;;;;;;16.33;100.00;101135.44;5244090;28;20431;-79
2023/08/04 06:09:30;;;;;;;16.17;7.43;;;;;;;16.45;100.00;101138.06;5242320;28;20368;-79
2023/08/04 06:12:01;;;;;;;13.73;7.97;;;;;;;16.50;100.00;101150.88;5249949;28;20036;-75
2023/08/04 06:14:32;;;;;;;10.80;7.60;;;;;;;16.54;100.00;101149.69;5251553;28;20444;-79
2023/08/04 06:17:04;;;;;;;15.77;8.37;;;;;;;16.54;100.00;101144.41;5252890;28;20039;-79
2023/08/04 06:19:39;;;;;;;18.80;8.23;;;;;;;16.66;100.00;101150.50;5235503;28;20207;-78
2023/08/04 06:22:13;;;;;;;15.07;7.63;;;;;;;16.66;100.00;101154.00;5244409;28;20032;-78
2023/08/04 06:24:44;;;;;;;17.52;7.53;;;;;;;16.72;100.00;101157.09;5244678;28;20025;-80
2023/08/04 06:27:15;;;;;;;14.13;8.00;;;;;;;16.75;100.00;101157.69;5253691;28;20380;-78
2023/08/04 06:29:47;;;;;;;19.27;7.47;;;;;;;16.80;100.00;101160.81;5252296;28;20471;-79
2023/08/04 06:32:18;;;;;;;11.30;8.67;;;;;;;16.86;100.00;101164.72;5250985;28;20455;-75
2023/08/04 06:34:49;;;;;;;13.60;6.97;;;;;;;16.92;100.00;101171.31;5250456;28;21117;-80
2023/08/04 06:37:21;;;;;;;11.40;7.40;;;;;;;17.08;100.00;101178.00;5234024;28;20112;-79
2023/08/04 06:39:52;;;;;;;14.53;8.17;;;;;;;17.26;100.00;101175.69;5233604;28;20121;-77
2023/08/04 06:42:24;;;;;;;11.63;6.80;;;;;;;17.49;100.00;101181.69;5252390;28;20040;-75
2023/08/04 06:44:55;;;;;;;13.47;7.80;;;;;;;17.71;100.00;101174.56;5253529;28;20031;-78
2023/08/04 06:47:26;;;;;;;11.43;6.60;;;;;;;17.78;100.00;101182.81;5253039;28;20407;-78
2023/08/04 06:49:58;;;;;;;12.40;7.30;;;;;;;17.91;100.00;101182.59;5253299;28;20033;-78
2023/08/04 06:52:30;;;;;;;13.47;6.53;;;;;;;17.99;100.00;101176.66;5252698;28;20025;-79
2023/08/04 06:55:02;;;;;;;12.90;6.77;;;;;;;18.03;100.00;101183.34;5252325;28;20390;-77
2023/08/04 06:57:33;;;;;;;10.77;6.47;;;;;;;18.13;100.00;101178.94;5253902;28;20060;-75
2023/08/04 07:00:05;;;;;;;10.77;6.77;;;;;;;18.38;100.00;101186.56;5235244;28;20029;-78
2023/08/04 07:02:37;;;;;;;11.10;6.40;;;;;;;18.33;100.00;101194.09;5253315;28;20372;-78
2023/08/04 07:05:08;;;;;;;10.90;6.20;;;;;;;18.45;100.00;101197.50;5252187;28;20040;-77
2023/08/04 07:07:39;;;;;;;12.33;5.90;;;;;;;18.58;100.00;101190.13;5253626;28;20040;-79
2023/08/04 07:10:10;;;;;;;9.13;5.20;;;;;;;18.69;100.00;101201.59;5251911;28;20451;-74
2023/08/04 07:12:42;;;;;;;11.30;5.67;;;;;;;18.78;100.00;101202.59;5235887;28;20029;-81
2023/08/04 07:15:13;;;;;;;8.40;5.17;;;;;;;18.90;100.00;101212.09;5252791;28;20049;-80
2023/08/04 07:17:44;;;;;;;10.20;4.80;;;;;;;19.05;100.00;101211.66;5252463;28;20060;-81
2023/08/04 07:20:16;;;;;;;12.30;5.13;;;;;;;19.09;100.00;101203.28;5252853;28;20032;-81
2023/08/04 07:22:47;;;;;;;6.97;4.47;;;;;;;19.17;100.00;101202.63;5252913;28;20037;-81
2023/08/04 07:25:18;;;;;;;10.37;5.77;;;;;;;19.46;100.00;101209.72;5234123;28;20061;-75
2023/08/04 07:27:49;;;;;;;10.60;5.00;;;;;;;19.69;100.00;101197.94;5234826;28;20036;-81
2023/08/04 07:30:21;;;;;;;8.67;3.73;;;;;;;20.12;100.00;101205.53;5252505;28;20060;-83
2023/08/04 07:32:52;;;;;;;9.53;4.23;;;;;;;20.14;100.00;101209.69;5252956;28;20610;-82
2023/08/04 07:35:23;;;;;;;9.00;3.60;;;;;;;20.23;100.00;101213.31;5235017;28;20036;-80
2023/08/04 07:37:55;;;;;;;7.87;3.50;;;;;;;20.12;100.00;101214.34;5252894;28;20033;-79
2023/08/04 07:40:26;;;;;;;6.33;3.20;;;;;;;20.14;100.00;101214.19;5251827;28;20052;-80
2023/08/04 07:42:57;;;;;;;8.00;2.97;;;;;;;20.04;100.00;101199.13;5255598;28;20438;-81
2023/08/04 07:45:29;;;;;;;6.07;2.67;;;;;;;20.06;100.00;101213.09;5256360;28;20569;-79
2023/08/04 07:48:00;;;;;;;8.17;3.77;;;;;;;19.98;100.00;101218.28;5255689;28;20082;-74
2023/08/04 07:50:31;;;;;;;10.55;3.20;;;;;;;19.91;100.00;101225.16;5256425;28;20104;-77
2023/08/04 07:53:03;;;;;;;6.73;3.10;;;;;;;19.82;100.00;101227.72;5255371;28;20128;-77
2023/08/04 07:55:35;;;;;;;7.77;3.37;;;;;;;19.71;100.00;101214.56;5256739;28;20021;-80
2023/08/04 07:58:07;;;;;;;5.73;2.90;;;;;;;19.62;100.00;101231.38;5255701;28;20028;-79
2023/08/04 08:00:38;;;;;;;7.17;2.57;;;;;;;19.48;100.00;101228.16;5243456;28;20071;-80
2023/08/04 08:03:10;;;;;;;6.43;3.10;;;;;;;19.49;100.00;101237.84;5256153;28;20049;-81
2023/08/04 08:05:41;;;;;;;7.53;2.50;;;;;;;19.57;100.00;101237.94;5255968;28;20027;-78
2023/08/04 08:08:13;;;;;;;6.27;2.47;;;;;;;19.61;100.00;101241.16;5254813;28;20017;-82
2023/08/04 08:10:44;;;;;;;6.90;1.93;;;;;;;19.55;100.00;101231.94;5254908;28;20103;-81
2023/08/04 08:13:16;;;;;;;6.67;2.00;;;;;;;19.64;100.00;101240.03;5245613;28;20080;-75
2023/08/04 08:15:48;;;;;;;5.83;2.50;;;;;;;19.75;100.00;101236.38;5254981;28;20031;-82
2023/08/04 08:18:19;;;;;;;5.20;2.43;;;;;;;19.98;100.00;101231.56;5255529;28;20029;-81
2023/08/04 08:20:51;;;;;;;3.80;2.22;;;;;;;20.15;100.00;101234.47;5238051;28;20032;-82
2023/08/04 08:23:22;;;;;;;4.47;2.20;;;;;;;20.53;100.00;101245.91;5254634;28;20025;-81
2023/08/04 08:25:53;;;;;;;4.00;1.65;;;;;;;20.96;100.00;101237.44;5256212;28;20032;-80
2023/08/04 08:28:24;;;;;;;2.80;1.83;;;;;;;21.79;100.00;101245.28;5255616;28;20415;-82
2023/08/04 08:30:56;;;;;;;4.20;1.73;;;;;;;23.18;100.00;101254.94;5238261;28;20159;-82
2023/08/04 08:33:27;;;;;;;7.93;2.38;;;;;;;23.13;100.00;101259.09;5237939;28;20033;-83
2023/08/04 08:35:59;;;;;;;4.20;1.40;;;;;;;22.97;100.00;101247.41;5253906;28;20025;-78
2023/08/04 08:38:30;;;;;;;4.53;1.52;;;;;;;22.87;100.00;101252.06;5269307;28;20040;-76
2023/08/04 08:41:02;;;;;;;5.03;2.05;;;;;;;22.78;100.00;101260.06;5275014;28;20028;-73
2023/08/04 08:43:33;;;;;;;4.45;1.70;;;;;;;22.67;100.00;101260.38;5257866;28;20146;-76
2023/08/04 08:46:05;;;;;;;3.78;1.65;;;;;;;22.50;100.00;101262.94;5260498;28;20021;-75
2023/08/04 08:48:42;;;;;;;5.43;1.98;;;;;;;22.32;100.00;101266.56;5237366;28;20683;-74
2023/08/04 08:51:18;;;;;;;6.45;1.88;;;;;;;22.03;100.00;101274.91;5255152;28;20021;-76
2023/08/04 08:53:49;;;;;;;3.47;1.65;;;;;;;21.68;100.00;101275.66;5234743;28;20039;-74
2023/08/04 08:56:21;;;;;;;4.18;1.98;;;;;;;21.79;100.00;101276.38;5255035;28;20029;-76
2023/08/04 08:58:52;;;;;;;6.72;2.03;;;;;;;21.68;100.00;101280.97;5236795;28;20032;-74
2023/08/04 09:01:24;;;;;;;3.22;2.08;;;;;;;21.47;100.00;101278.66;5255153;28;20033;-73
2023/08/04 09:03:56;;;;;;;6.25;2.60;;;;;;;21.55;100.00;101276.06;5254682;28;20036;-74
2023/08/04 09:06:28;;;;;;;7.28;2.08;;;;;;;21.64;100.00;101280.44;5254193;28;20543;-74
2023/08/04 09:09:01;;;;;;;4.22;2.25;;;;;;;21.76;100.00;101278.38;5249119;28;20144;-73
2023/08/04 09:11:32;;;;;;;4.85;1.88;;;;;;;21.82;100.00;101282.28;5245161;28;20033;-76
2023/08/04 09:14:05;;;;;;;5.75;1.77;;;;;;;21.68;100.00;101280.16;5254496;28;20098;-78
2023/08/04 09:16:39;;;;;;;7.77;1.90;;;;;;;21.69;100.00;101274.66;5255585;28;20044;-75
2023/08/04 09:19:10;;;;;;;3.83;1.65;;;;;;;21.76;100.00;101288.22;5255458;28;20516;-78
2023/08/04 09:21:41;;;;;;;4.55;1.60;;;;;;;21.91;100.00;101296.50;5255245;28;20028;-78
2023/08/04 09:24:15;;;;;;;4.32;1.90;;;;;;;21.61;100.00;101296.75;5253101;28;20028;-74
2023/08/04 09:26:46;;;;;;;4.75;2.03;;;;;;;21.35;100.00;101302.88;5253609;28;20056;-75
2023/08/04 09:29:18;;;;;;;3.40;1.83;;;;;;;21.08;100.00;101301.09;5253415;28;20064;-79
2023/08/04 09:31:49;;;;;;;4.32;1.80;;;;;;;21.08;100.00;101298.44;5253366;28;20105;-79
2023/08/04 09:34:20;;;;;;;4.05;2.15;;;;;;;20.74;100.00;101295.38;5252559;28;20087;-79
2023/08/04 09:36:52;;;;;;;4.10;2.30;;;;;;;20.96;100.00;101292.50;5251928;28;20115;-80
2023/08/04 09:39:23;;;;;;;4.15;2.25;;;;;;;21.12;100.00;101294.50;5233791;28;20051;-78
2023/08/04 09:41:55;;;;;;;6.22;2.30;;;;;;;21.83;100.00;101293.78;5253039;28;20029;-79
2023/08/04 09:44:34;;;;;;;4.60;2.15;;;;;;;23.00;100.00;101289.00;5252276;28;20021;-80
2023/08/04 09:47:06;;;;;;;6.95;2.08;;;;;;;23.08;100.00;101297.84;5239219;28;20035;-80
2023/08/04 09:49:37;;;;;;;6.70;1.95;;;;;;;23.14;100.00;101299.03;5252684;28;20021;-79
2023/08/04 09:52:08;;;;;;;3.63;1.60;;;;;;;23.42;100.00;101290.72;5255072;28;20056;-76
2023/08/04 09:54:40;;;;;;;3.65;1.80;;;;;;;23.72;100.00;101302.75;5255372;28;20103;-85
2023/08/04 09:57:14;;;;;;;3.85;1.67;;;;;;;23.68;100.00;101303.09;5254528;28;20036;-85
2023/08/04 09:59:46;;;;;;;;;;;;;;;25.07;100.00;101294.94;5239587;28;20025;-85
2023/08/04 10:02:19;;;;;;;4.35;1.52;;;;;;;24.98;100.00;101296.84;5238217;28;20295;-83
2023/08/04 10:04:51;;;;;;;5.40;2.53;;;;;;;24.76;100.00;101293.09;5238943;28;20029;-83
2023/08/04 10:07:23;;;;;;;4.93;2.15;;;;;;;25.00;100.00;101285.94;5254264;28;20078;-84
2023/08/04 10:09:54;;;;;;;5.30;1.42;;;;;;;24.80;100.00;101298.94;5253344;28;20021;-80
2023/08/04 10:12:26;;;;;;;4.47;1.60;;;;;;;24.52;100.00;101293.03;5247538;28;20029;-79
2023/08/04 10:14:58;;;;;;;4.65;1.55;;;;;;;24.23;100.00;101304.34;5253959;28;20678;-82
2023/08/04 10:17:29;;;;;;;4.97;2.00;;;;;;;24.27;100.00;101313.72;5252238;28;20029;-83
2023/08/04 10:20:03;;;;;;;4.85;1.40;;;;;;;24.00;100.00;101311.22;5251606;28;20553;-78
2023/08/04 10:22:35;;;;;;;2.60;1.40;;;;;;;23.83;100.00;101313.09;5252026;28;20096;-78
2023/08/04 10:25:15;;;;;;;3.53;1.50;;;;;;;24.12;100.00;101309.03;5251961;28;20112;-82
2023/08/04 10:27:48;;;;;;;5.05;1.38;;;;;;;23.55;100.00;101310.78;5233574;28;20052;-75
2023/08/04 10:30:19;;;;;;;3.57;1.50;;;;;;;23.48;100.00;101310.59;5230756;28;20033;-83
2023/08/04 10:32:51;;;;;;;2.97;1.20;;;;;;;23.21;100.00;101302.69;5232355;28;20381;-83
2023/08/04 10:35:23;;;;;;;3.05;1.38;;;;;;;24.04;100.00;101301.03;5273515;28;20403;-83
2023/08/04 10:37:59;;;;;;;4.68;1.70;;;;;;;24.50;100.00;101310.28;5253836;28;20029;-80
2023/08/04 10:40:32;;;;;;;3.83;1.75;;;;;;;24.47;100.00;101310.63;5272532;28;20058;-74
2023/08/04 10:43:06;;;;;;;4.60;1.55;;;;;;;24.78;100.00;101296.44;5254503;28;20024;-78
2023/08/04 10:45:52;;;;;;;;;;;;;;;25.87;100.00;101314.44;5268734;28;20719;-79
2023/08/04 10:48:26;;;;;;;6.20;1.88;;;;;;;25.60;100.00;101312.13;5251902;28;19936;-77
2023/08/04 10:50:57;;;;;;;7.10;1.35;;;;;;;25.59;100.00;101318.50;5234554;28;20033;-79
2023/08/04 10:53:29;;;;;;;4.47;1.55;;;;;;;25.59;100.00;101319.34;5232838;28;20137;-74
2023/08/04 10:56:06;;;;;;;5.15;1.60;;;;;;;25.56;100.00;101324.22;5234078;28;20111;-78
2023/08/04 10:58:38;;;;;;;3.33;1.33;;;;;;;25.53;100.00;101324.59;5234903;28;20021;-77
2023/08/04 11:01:15;;;;;;;4.20;1.45;;;;;;;25.66;100.00;101332.06;5253719;28;20090;-73
2023/08/04 11:03:49;;;;;;;4.45;1.50;;;;;;;25.13;100.00;101325.56;5252643;28;20407;-76
2023/08/04 11:06:20;;;;;;;3.33;1.63;;;;;;;25.00;100.00;101326.97;5251301;28;20707;-75
2023/08/04 11:08:52;;;;;;;5.55;1.75;;;;;;;25.65;100.00;101333.91;5253020;28;20048;-75
2023/08/04 11:11:23;;;;;;;3.92;1.30;;;;;;;25.95;100.00;101323.25;5253093;28;20100;-74
2023/08/04 11:13:56;;;;;;;3.67;1.30;;;;;;;25.26;100.00;101324.94;5253065;28;20047;-80
2023/08/04 11:16:32;;;;;;;3.03;1.50;;;;;;;26.24;100.00;101331.47;5253290;28;20796;-78
2023/08/04 11:19:06;;;;;;;5.90;1.40;;;;;;;25.58;100.00;101339.13;5241472;28;20032;-80
2023/08/04 11:21:38;;;;;;;5.60;1.60;;;;;;;25.70;100.00;101336.88;5252241;28;20036;-73
2023/08/04 11:24:09;;;;;;;4.00;1.35;;;;;;;25.41;100.00;101334.91;5264901;28;20029;-74
2023/08/04 11:26:41;;;;;;;3.30;1.42;;;;;;;25.24;100.00;101343.91;5255231;28;20060;-75
2023/08/04 11:29:12;;;;;;;4.03;1.20;;;;;;;25.55;100.00;101355.59;5254113;28;20037;-77
2023/08/04 11:31:46;;;;;;;3.85;1.50;;;;;;;25.26;100.00;101351.75;5229265;28;20029;-75